Date,TemperatureHighF,TemperatureAvgF,TemperatureLowF,DewpointHighF,DewpointAvgF,DewpointLowF,HumidityHigh,HumidityAvg,HumidityLow,PressureMaxIn,PressureMinIn,WindSpeedMaxMPH,WindSpeedAvgMPH,GustSpeedMaxMPH,PrecipitationSumIn
2013-1-1,31,26,15,30,22,9,99,85,68,30.17,30.02,9,2,13,0.00
2013-1-2,24,16,10,15,10,6,89,79,66,30.29,30.14,5,0,9,0.01
2013-1-3,30,20,8,20,13,4,87,74,51,30.30,30.21,14,3,20,0.00
2013-1-4,31,27,23,22,18,16,78,70,59,30.33,30.25,20,7,24,0.00
2013-1-5,37,28,17,26,21,14,90,75,60,30.41,30.16,9,1,14,0.18
2013-1-6,36,32,26,32,27,21,91,80,73,30.31,30.00,14,3,23,0.09
2013-1-7,34,29,25,25,23,21,89,80,64,30.51,30.28,9,1,12,0.04
2013-1-8,45,32,21,31,25,18,92,76,57,30.37,30.25,6,0,11,0.05
2013-1-9,47,40,35,39,32,24,90,74,61,30.52,30.21,13,2,17,0.10
2013-1-10,39,34,27,30,28,25,92,79,68,30.58,30.19,10,2,14,0.00
2013-1-11,59,49,40,53,44,30,98,83,66,30.19,29.88,16,3,22,0.45
2013-1-12,62,57,50,60,55,46,100,93,77,30.03,29.82,10,2,15,0.02
2013-1-13,63,57,38,61,54,36,100,90,76,30.03,29.74,26,5,33,0.40
2013-1-14,38,29,24,37,23,20,96,81,73,30.43,30.03,12,3,17,0.00
2013-1-15,32,27,22,23,21,18,89,77,65,30.41,30.09,10,1,13,0.01
2013-1-16,34,31,30,28,25,22,91,78,68,30.09,29.94,13,3,18,0.00
2013-1-17,36,32,25,28,25,16,87,75,64,30.32,30.07,14,2,17,0.00
2013-1-18,33,25,15,22,15,9,81,64,52,30.54,30.24,19,3,19,0.00
2013-1-19,52,42,34,27,22,19,60,47,30,30.23,29.84,20,7,27,0.00
2013-1-20,43,31,22,31,16,10,65,55,38,30.21,29.82,21,6,32,0.00
2013-1-21,22,18,8,16,9,-3,83,68,53,30.22,30.03,21,5,23,0.00
2013-1-22,14,9,4,-2,-4,-6,64,56,45,30.38,30.21,17,4,20,0.00
2013-1-23,19,13,5,13,2,-2,86,62,40,30.38,30.11,13,2,16,0.00
2013-1-24,21,15,10,13,7,3,86,71,56,30.60,30.11,12,2,19,0.00
2013-1-25,20,17,14,18,10,3,91,75,58,30.53,30.06,7,1,14,0.00
2013-1-26,26,23,13,21,17,6,91,78,62,30.49,30.13,12,2,14,0.00
2013-1-27,33,22,10,27,14,6,86,73,57,30.54,30.26,11,1,13,0.04
2013-1-28,48,42,30,48,41,27,100,98,86,30.26,30.01,12,2,16,0.00
2013-1-29,67,57,48,55,52,48,100,83,60,30.05,29.64,23,4,23,0.00
2013-1-30,63,54,33,56,48,27,94,81,69,29.62,29.21,20,7,31,0.00
2013-1-31,33,24,18,27,18,10,91,76,56,29.94,29.41,26,8,37,0.00
2013-2-1,17,10,6,14,2,-1,88,70,60,30.42,29.94,14,5,19,0.00
2013-2-2,25,18,6,23,13,1,92,83,74,30.39,30.01,10,2,17,0.00
2013-2-3,24,20,16,21,15,8,89,81,66,30.13,29.92,13,2,18,0.00
2013-2-4,29,20,12,28,17,9,97,85,64,30.13,29.87,6,0,11,0.00
2013-2-5,30,27,25,28,24,20,96,87,71,30.00,29.87,10,1,14,0.05
2013-2-6,36,28,19,27,20,14,87,72,51,30.33,30.00,9,2,15,0.04
2013-2-7,47,35,23,31,25,16,81,67,48,30.29,29.85,10,2,13,0.02
2013-2-8,41,33,24,39,27,17,95,81,71,30.31,29.76,20,5,25,0.18
2013-2-9,35,26,18,20,16,14,87,67,49,30.46,30.31,9,1,14,0.00
2013-2-10,46,36,26,39,23,15,82,60,44,30.31,29.84,13,2,18,0.02
2013-2-11,52,45,36,47,35,24,95,71,45,29.97,29.74,25,8,32,0.00
2013-2-12,44,35,28,26,24,22,78,64,47,30.12,29.93,16,4,24,0.00
2013-2-13,31,28,24,28,25,22,94,86,77,29.92,29.74,8,1,10,0.00
2013-2-14,43,34,25,36,30,23,97,88,71,29.96,29.83,15,2,19,0.00
2013-2-15,34,30,25,29,26,22,91,84,75,30.13,29.97,10,1,15,0.03
2013-2-16,27,22,15,22,15,5,89,74,51,30.12,30.00,13,3,19,0.02
2013-2-17,23,16,12,10,7,1,81,67,52,30.29,30.08,13,3,17,0.00
2013-2-18,50,32,14,31,18,7,74,58,43,30.30,29.78,24,3,33,0.00
2013-2-19,49,31,19,38,25,11,96,80,45,30.07,29.64,27,8,32,0.16
2013-2-20,20,18,15,14,10,7,81,70,59,30.32,30.07,14,5,22,0.00
2013-2-21,28,22,19,17,14,10,84,72,62,30.39,30.24,10,2,15,0.00
2013-2-22,40,32,24,39,28,16,99,86,71,30.24,29.94,14,3,17,0.04
2013-2-23,40,35,29,32,27,22,89,74,52,29.99,29.88,13,2,17,0.00
2013-2-24,32,28,25,24,20,18,83,72,58,30.18,29.92,11,2,16,0.00
2013-2-25,46,33,19,27,22,16,92,65,41,30.23,30.00,8,1,13,0.00
2013-2-26,42,35,32,41,30,21,99,84,61,30.00,29.49,15,5,21,0.52
2013-2-27,42,37,32,41,34,29,99,91,83,29.70,29.48,16,6,23,0.22
2013-2-28,34,32,30,32,30,27,95,92,83,29.91,29.65,12,4,17,0.06
2013-3-1,32,29,25,29,24,18,89,79,68,30.05,29.90,11,1,14,0.00
2013-3-2,28,25,24,22,20,18,88,80,67,30.06,30.00,11,3,16,0.00
2013-3-3,27,23,17,20,16,13,88,77,62,30.10,30.02,11,2,14,0.00
2013-3-4,39,26,14,20,15,10,89,65,31,30.19,30.07,9,1,12,0.00
2013-3-5,39,34,29,31,23,16,96,66,52,30.09,29.54,13,3,18,0.00
2013-3-6,38,34,31,35,30,27,98,88,72,30.20,29.53,10,2,13,0.06
2013-3-7,40,33,30,28,26,25,84,76,59,30.32,30.18,11,3,14,0.01
2013-3-10,69,64,59,35,32,30,41,31,24,29.94,29.84,10,1,14,0.00
2013-3-11,59,51,40,50,40,33,95,68,40,29.85,29.56,19,4,26,0.00
2013-3-12,40,35,31,33,29,24,92,77,59,30.02,29.79,15,4,21,0.00
2013-3-13,32,28,25,31,22,15,96,79,59,30.27,29.96,17,5,25,0.00
2013-3-14,40,29,20,20,16,14,78,60,41,30.33,30.16,14,3,22,0.00
2013-3-15,48,38,28,39,28,18,93,69,57,30.17,29.85,12,2,15,0.00
2013-3-16,52,41,30,46,38,27,99,91,77,30.00,29.59,16,3,22,0.00
2013-3-17,38,32,30,27,25,22,89,74,57,30.19,30.01,12,2,16,0.00
2013-3-18,49,38,30,49,37,23,100,94,73,30.09,29.60,16,4,23,0.00
2013-3-19,40,34,28,35,23,14,87,66,42,30.04,29.76,22,8,31,0.00
2013-3-20,35,30,24,19,14,10,60,52,42,30.01,29.92,21,6,24,0.00
2013-3-21,27,23,17,20,13,8,80,65,51,30.01,29.92,12,4,20,0.00
2013-3-22,40,29,20,19,16,14,79,60,38,30.05,29.99,13,2,17,0.00
2013-3-23,30,25,23,21,17,15,77,71,62,30.08,30.01,0,0,4,0.00
2013-3-24,35,33,32,31,28,25,93,81,68,29.59,29.44,14,4,22,0.00
2013-3-25,34,32,31,31,30,29,99,94,86,29.85,29.39,12,2,20,0.00
2013-3-26,40,35,31,30,27,21,92,74,48,30.16,29.92,15,5,17,0.00
2013-3-27,42,36,32,29,25,20,88,67,43,30.25,30.15,16,5,21,0.00
2013-3-28,47,37,28,27,24,21,77,59,41,30.31,30.24,14,4,22,0.00
2013-3-29,51,40,28,27,25,22,80,57,36,30.31,30.19,13,2,17,0.00
2013-3-30,56,41,27,33,25,20,86,57,27,30.26,29.96,9,0,12,0.00
2013-3-31,53,45,40,45,36,24,96,73,47,29.95,29.72,11,1,16,0.00
2013-4-1,48,39,30,40,23,13,85,54,35,30.11,29.73,17,5,24,0.00
2013-4-2,40,28,20,18,14,11,69,54,38,30.25,30.10,14,2,16,0.00
2013-4-4,51,38,25,20,14,7,56,40,21,30.39,29.99,10,1,19,0.00
2013-4-5,57,44,32,33,22,18,60,43,27,30.16,29.94,15,1,17,0.00
2013-4-6,58,43,29,22,16,11,64,37,18,30.27,29.93,9,2,16,0.00
2013-4-7,70,61,52,46,36,17,57,40,25,29.97,29.83,18,5,26,0.00
2013-4-8,71,61,48,52,46,37,81,60,44,29.97,29.85,17,4,23,0.00
2013-4-9,79,66,51,56,52,49,94,65,38,30.05,29.87,22,3,25,0.00
2013-4-10,80,69,58,62,58,54,97,69,50,29.90,29.73,21,4,25,0.00
2013-4-11,69,60,56,61,57,54,99,91,73,29.84,29.52,9,1,17,0.00
2013-4-12,59,48,41,58,43,31,99,83,63,29.89,29.43,16,5,25,0.00
2013-4-13,46,42,40,34,32,30,75,69,59,29.98,29.89,14,5,23,0.00
2013-4-14,64,58,41,41,38,33,74,48,37,30.10,29.91,10,2,21,0.00
2013-4-15,68,60,51,52,46,36,70,60,48,30.00,29.88,15,2,16,0.00
2013-4-16,77,62,55,62,54,49,99,77,50,30.14,29.94,13,3,22,0.00
2013-4-17,66,58,52,58,55,52,100,92,75,30.21,29.99,14,2,17,0.00
2013-4-18,83,69,58,61,56,50,96,67,32,30.01,29.60,18,4,31,0.00
2013-4-19,74,52,39,60,41,27,96,67,47,29.93,29.39,20,8,33,0.00
2013-4-20,45,38,31,32,27,23,87,64,44,30.42,29.93,16,5,22,0.00
2013-4-21,54,40,26,30,24,19,91,57,28,30.58,30.42,12,1,17,0.00
2013-4-22,68,51,35,43,31,22,65,48,28,30.42,30.15,9,1,14,0.00
2013-4-23,70,59,45,45,36,25,54,43,31,30.16,29.86,10,2,19,0.00
2013-4-24,63,51,33,55,44,30,97,78,51,30.19,29.73,17,4,21,0.00
2013-4-25,54,42,31,38,32,24,97,70,47,30.37,30.19,16,3,21,0.00
2013-4-26,61,47,31,36,30,24,86,56,30,30.46,30.35,9,1,13,0.00
2013-4-27,70,56,37,42,34,28,78,47,22,30.36,30.07,10,1,15,0.00
2013-4-28,62,56,52,60,52,42,99,89,60,30.07,29.82,8,1,16,0.00
2013-4-29,63,58,51,57,55,50,100,91,72,29.97,29.85,7,1,12,0.00
2013-4-30,75,61,47,58,52,46,100,75,46,30.06,29.96,10,1,12,0.00
2013-5-1,80,67,55,60,53,50,84,63,38,30.20,30.05,10,2,17,0.00
2013-5-2,75,65,57,55,51,46,83,60,46,30.24,30.09,11,2,16,0.00
2013-5-3,76,66,56,53,44,33,79,49,22,30.12,29.99,13,2,22,0.00
2013-5-4,70,61,52,47,41,36,67,49,37,30.06,29.96,15,4,21,0.00
2013-5-5,72,62,50,43,38,26,72,44,24,30.01,29.89,15,3,18,0.00
2013-5-6,69,60,54,56,46,27,89,63,27,29.96,29.91,11,1,15,0.00
2013-5-7,71,61,55,62,54,51,93,81,57,29.95,29.90,10,2,14,0.00
2013-5-8,72,62,54,55,52,48,91,72,44,29.95,29.87,9,1,13,0.00
2013-5-9,79,65,50,56,52,44,99,68,31,29.97,29.90,11,1,16,0.00
2013-5-10,73,63,58,62,59,53,99,87,64,29.92,29.76,15,2,28,0.33
2013-5-11,60,53,44,60,48,38,99,86,70,29.93,29.76,17,3,23,0.01
2013-5-12,51,44,36,38,31,27,94,64,41,30.11,29.93,16,3,20,0.00
2013-5-13,54,44,33,33,29,24,88,60,31,30.19,30.09,13,1,15,0.00
2013-5-14,73,55,36,53,40,32,87,61,36,30.16,29.79,14,2,24,0.00
2013-5-15,86,74,64,58,56,53,75,55,33,29.80,29.71,18,5,24,0.00
2013-5-16,76,69,60,63,58,50,97,72,41,29.94,29.74,14,1,17,0.02
2013-5-17,81,68,60,64,60,52,100,80,41,30.06,29.93,9,1,11,0.00
2013-5-18,80,67,58,64,58,51,91,73,52,30.07,29.95,10,1,11,0.00
2013-5-19,79,70,61,65,62,58,96,78,58,29.99,29.88,10,1,12,0.00
2013-5-20,83,72,64,72,66,62,100,84,54,29.97,29.84,11,1,14,0.30
2013-5-21,84,74,66,68,65,58,99,75,42,29.88,29.75,12,2,19,0.00
2013-5-22,79,71,62,63,60,58,96,71,52,29.81,29.69,16,3,24,0.00
2013-5-23,73,62,47,63,57,43,99,85,50,30.00,29.73,19,4,22,0.00
2013-5-24,55,47,41,43,37,34,89,69,44,30.32,30.00,19,4,20,0.00
2013-5-25,63,49,34,43,37,33,99,67,38,30.38,30.23,12,1,16,0.00
2013-5-26,69,54,37,43,34,26,93,52,24,30.32,30.19,10,0,12,0.00
2013-5-27,66,56,48,51,44,34,89,64,49,30.24,30.00,13,2,20,0.00
2013-5-28,82,72,59,63,58,51,85,63,43,30.01,29.90,17,3,23,0.00
2013-5-29,85,76,68,60,58,52,70,54,32,30.03,29.93,19,4,24,0.00
2013-5-30,86,75,63,65,61,56,96,64,38,30.12,29.98,11,1,18,0.00
2013-5-31,86,73,62,67,62,58,99,72,44,30.03,29.91,14,3,35,0.11
2013-6-1,82,73,64,69,65,63,99,78,54,29.93,29.72,18,4,24,0.35
2013-6-2,75,70,64,68,61,56,98,76,53,29.86,29.72,12,2,20,0.42
2013-6-3,67,61,52,58,53,44,87,76,56,30.06,29.85,8,1,11,0.00
2013-6-4,74,60,42,50,43,35,87,56,36,30.15,30.05,7,1,12,0.00
2013-6-5,81,68,53,59,51,43,74,58,39,30.10,29.84,12,1,13,0.00
2013-6-6,70,65,59,67,63,57,100,94,72,29.85,29.72,6,0,10,0.21
2013-6-7,69,59,55,57,55,52,100,87,62,29.87,29.77,7,1,14,0.00
2013-6-8,75,63,52,58,54,51,99,74,44,30.04,29.86,5,0,9,0.00
2013-6-9,81,72,63,66,60,55,85,68,44,30.07,29.90,7,1,16,0.00
2013-6-10,76,68,64,67,64,61,100,89,61,29.90,29.71,12,2,18,0.42
2013-6-11,82,71,62,65,62,60,99,77,48,29.90,29.78,10,2,16,0.00
2013-6-12,86,76,64,73,68,62,96,76,62,29.87,29.64,7,1,14,0.00
2013-6-13,80,69,62,72,61,54,99,77,50,29.85,29.47,17,3,20,0.26
2013-6-14,74,66,58,59,55,53,87,70,50,30.03,29.85,11,2,16,0.00
2013-6-15,77,66,51,60,55,51,100,71,42,30.10,29.94,6,0,11,0.00
2013-6-16,76,70,67,66,63,59,92,78,65,29.94,29.87,15,2,18,0.00
2013-6-17,83,72,66,69,66,62,100,81,54,29.93,29.84,11,1,12,0.00
2013-6-18,80,70,61,68,63,53,96,81,55,29.95,29.80,8,1,14,0.00
2013-6-19,78,66,54,55,50,41,85,60,28,30.12,29.94,10,1,11,0.00
2013-6-20,84,69,53,56,52,47,90,59,31,30.19,30.11,6,0,9,0.00
2013-6-21,85,71,56,62,57,52,93,65,33,30.21,30.09,7,0,14,0.00
2013-6-22,86,75,62,68,64,60,96,70,49,30.12,30.01,7,1,14,0.00
2013-6-23,87,76,64,70,64,58,99,70,43,30.09,29.98,10,1,15,0.00
2013-6-24,84,74,62,70,64,60,98,74,50,30.09,29.96,12,1,18,0.00
2013-6-25,87,77,67,72,68,64,95,76,56,30.01,29.82,17,3,17,0.00
2013-6-26,83,73,66,71,68,64,100,85,62,29.87,29.74,10,2,17,1.49
2013-6-27,83,72,66,72,68,64,100,88,60,29.76,29.62,9,1,15,0.01
2013-6-28,79,71,62,69,64,58,96,80,58,29.62,29.49,13,1,21,0.12
2013-6-29,78,66,60,65,61,58,98,86,56,29.64,29.51,7,1,15,0.01
2013-6-30,80,68,62,67,64,61,100,89,59,29.80,29.63,7,1,11,0.10
2013-7-1,81,70,63,67,64,62,98,83,52,29.89,29.77,7,1,13,0.07
2013-7-2,80,72,65,69,66,64,98,83,62,29.99,29.86,6,1,14,0.00
2013-7-3,81,73,67,71,68,65,99,85,60,30.09,29.97,9,1,13,0.06
2013-7-4,74,70,69,70,68,66,100,94,78,30.14,30.07,7,1,13,0.22
2013-7-5,77,70,66,70,68,66,100,93,71,30.12,30.04,7,0,10,0.91
2013-7-6,83,73,68,73,69,64,100,88,64,30.11,29.97,15,1,19,0.33
2013-7-7,80,71,65,67,64,59,97,81,59,30.07,29.97,13,1,18,0.03
2013-7-8,79,70,63,73,66,60,100,90,73,30.09,30.01,10,1,14,1.28
2013-7-9,86,74,69,74,71,68,100,92,67,30.03,29.93,28,1,39,1.28
2013-7-10,87,74,65,76,70,64,100,91,65,29.95,29.76,19,2,33,0.44
2013-7-11,78,69,60,66,62,54,100,80,52,29.98,29.88,12,1,13,0.01
2013-7-12,79,68,58,62,58,55,96,74,51,30.05,29.98,11,1,21,0.00
2013-7-13,84,73,62,68,64,59,96,75,55,30.13,30.03,11,1,16,0.00
2013-7-14,87,78,68,73,69,65,93,74,58,30.20,30.11,10,1,15,0.00
2013-7-15,90,80,72,72,69,66,91,70,47,30.27,30.18,5,0,7,0.00
2013-7-16,95,82,70,75,71,68,99,73,43,30.28,30.19,4,0,7,0.00
2013-7-17,91,82,71,74,71,68,97,73,48,30.25,30.11,7,1,12,0.00
2013-7-18,90,80,74,76,72,69,96,76,53,30.15,29.96,12,0,16,0.04
2013-7-19,89,77,72,75,72,68,98,85,55,29.98,29.83,12,1,26,0.38
2013-7-20,78,73,69,72,70,67,98,90,73,29.89,29.79,7,1,14,0.50
2013-7-21,84,74,68,72,69,66,100,84,55,29.93,29.85,4,0,6,0.00
2013-7-22,74,71,65,70,68,65,100,91,83,29.88,29.72,6,0,12,2.06
2013-7-23,84,74,68,73,69,66,100,88,58,29.77,29.62,10,1,21,0.27
2013-7-24,74,67,58,67,58,52,96,75,50,29.97,29.73,10,1,14,0.00
2013-7-25,78,64,52,57,53,50,94,69,41,30.06,29.97,7,0,11,0.00
2013-7-26,79,67,54,62,56,53,99,71,45,30.06,29.93,6,0,11,0.00
2013-7-27,72,66,63,66,63,60,97,90,73,29.93,29.78,11,1,15,0.22
2013-7-28,64,58,53,62,54,50,97,88,66,29.93,29.83,7,0,12,0.00
2013-8-2,74,72,70,63,62,61,78,71,66,29.92,29.89,5,1,11,0.00
2013-8-3,79,69,60,70,63,58,100,83,51,29.98,29.91,10,0,11,0.42
2013-8-4,75,65,56,60,56,53,98,74,48,30.09,29.97,10,1,15,0.00
2013-8-5,74,63,51,60,55,51,100,78,49,30.11,29.95,5,0,9,0.00
2013-8-6,80,70,60,62,59,56,88,69,47,29.98,29.90,10,1,11,0.00
2013-8-7,84,74,64,73,67,61,93,82,59,29.91,29.82,8,1,15,0.00
2013-8-8,81,73,68,73,71,68,100,95,74,29.92,29.85,5,0,11,0.61
2013-8-9,78,70,64,72,66,60,100,89,57,30.00,29.84,6,0,12,0.40
2013-8-10,82,72,62,66,63,61,96,77,53,30.07,30.00,5,0,7,0.01
2013-8-11,83,71,62,73,66,62,100,85,59,30.06,29.98,7,0,12,0.41
2013-8-12,83,72,60,68,64,60,100,78,52,30.03,29.83,6,0,10,0.01
2013-8-13,75,67,54,70,61,49,100,81,56,29.99,29.76,15,2,17,0.01
2013-8-14,60,53,50,50,48,47,93,84,70,30.14,29.99,6,1,11,0.00
2013-8-15,74,60,49,56,51,48,100,76,43,30.17,30.06,6,0,10,0.00
2013-8-16,77,65,55,57,53,50,90,68,43,30.13,30.08,7,0,11,0.00
2013-8-17,80,67,57,62,56,53,89,70,44,30.18,30.11,7,1,12,0.00
2013-8-18,73,65,57,65,61,56,99,88,70,30.17,30.08,5,0,9,0.00
2013-8-19,83,70,60,66,62,54,100,80,40,30.11,30.03,5,0,7,0.00
2013-8-20,83,70,59,68,61,58,100,77,44,30.16,30.07,6,0,11,0.00
2013-8-21,82,70,61,69,64,61,100,84,57,30.14,30.01,6,0,9,0.01
2013-8-22,83,72,64,70,66,62,100,82,60,30.07,29.95,7,1,16,0.00
2013-8-23,84,73,66,69,64,54,100,77,45,30.11,29.96,9,0,14,0.71
2013-8-24,84,70,58,64,57,53,86,65,39,30.25,30.11,7,1,11,0.00
2013-8-25,82,69,58,65,58,55,97,71,42,30.32,30.19,8,0,12,0.00
2013-8-26,86,73,60,67,62,56,92,71,47,30.23,29.99,9,1,14,0.00
2013-8-27,83,75,69,73,70,67,94,84,67,30.01,29.88,9,1,14,0.00
2013-8-28,84,77,71,73,71,69,98,84,67,29.91,29.80,13,1,16,0.04
2013-8-29,84,74,67,71,68,66,100,85,58,30.00,29.90,6,0,10,0.01
2013-8-30,86,74,64,71,67,64,100,80,53,29.96,29.79,10,1,11,0.01
2013-8-31,85,75,68,72,69,65,99,85,65,29.81,29.72,13,2,17,0.42
2013-9-1,82,74,66,72,69,66,100,85,60,29.79,29.70,9,1,12,0.01
2013-9-2,81,73,66,72,68,59,100,85,66,29.83,29.72,12,1,16,0.38
2013-9-3,66,60,52,60,53,51,98,80,63,30.04,29.83,9,2,15,0.00
2013-9-4,80,64,50,60,55,50,100,76,41,30.12,30.03,7,1,13,0.01
2013-9-5,78,66,56,64,56,46,97,73,34,30.18,30.05,12,1,14,0.00
2013-9-6,77,61,47,52,47,37,99,67,26,30.24,30.09,6,0,11,0.00
2013-9-7,82,66,49,63,55,47,97,71,46,30.09,29.91,7,0,11,0.00
2013-9-8,83,72,65,69,65,61,93,78,58,29.99,29.88,9,0,11,0.00
2013-9-9,86,73,61,69,64,58,94,77,53,30.02,29.93,14,1,15,0.00
2013-9-10,91,80,71,73,70,66,87,73,50,30.06,29.97,12,2,15,0.00
2013-9-11,86,76,71,73,70,66,96,82,62,30.09,29.94,9,1,20,0.26
2013-9-12,75,70,61,71,67,58,100,91,66,29.95,29.79,12,2,18,0.39
2013-9-13,62,56,50,57,50,46,96,79,59,30.06,29.85,13,3,17,0.00
2013-9-14,69,54,43,48,43,40,94,70,39,30.16,30.05,7,1,11,0.01
2013-9-15,71,58,44,59,49,43,100,76,45,30.15,30.01,5,1,12,0.03
2013-9-16,72,60,52,60,54,48,100,81,47,30.28,30.04,5,0,11,0.13
2013-9-17,72,58,47,55,50,46,100,77,44,30.33,30.18,9,1,12,0.01
2013-9-18,74,62,54,62,56,51,97,83,65,30.17,30.04,9,1,10,0.00
2013-9-19,70,65,62,67,64,62,100,98,87,30.07,29.96,6,0,10,0.00
2013-9-20,83,72,65,71,67,65,100,85,55,29.98,29.74,10,2,13,0.02
2013-9-21,70,64,55,67,59,48,100,85,54,29.82,29.63,11,1,22,0.93
2013-9-22,65,55,46,49,46,42,97,73,47,30.02,29.82,10,1,14,0.00
2013-9-23,62,51,42,50,44,42,100,79,53,30.14,30.02,7,1,14,0.00
2013-9-24,69,53,40,50,45,40,100,79,41,30.12,29.94,10,1,12,0.01
2013-9-25,73,57,46,54,50,45,100,80,44,29.95,29.85,5,0,10,0.01
2013-9-26,80,63,52,56,50,41,93,66,26,30.06,29.89,5,0,10,0.00
2013-9-27,78,62,49,57,51,47,94,71,41,30.15,30.05,6,0,11,0.00
2013-9-28,78,62,50,58,52,49,99,73,38,30.18,30.05,8,0,10,0.00
2013-9-29,73,62,54,61,56,53,99,84,58,30.06,29.96,10,0,12,0.01
2013-9-30,72,62,59,63,59,57,99,89,62,30.01,29.92,4,0,11,0.04
2013-10-1,77,65,55,63,58,55,100,82,49,30.06,29.97,12,1,16,0.00
2013-10-2,80,67,58,66,62,56,99,84,55,30.08,30.00,6,0,10,0.00
2013-10-3,77,69,63,68,65,63,100,89,63,30.05,29.97,9,1,13,0.08
2013-10-4,81,68,62,68,65,62,100,90,54,30.05,29.98,6,0,11,0.68
2013-10-5,79,70,65,70,67,63,100,89,66,30.03,29.90,9,1,15,0.09
2013-10-6,78,68,51,68,64,50,100,89,62,29.90,29.66,15,3,23,1.62
2013-10-7,60,52,44,52,45,41,100,80,50,30.15,29.73,11,2,17,0.45
2013-10-8,68,54,43,48,45,41,96,74,43,30.27,30.15,10,1,13,0.01
2013-10-9,71,56,44,49,44,42,93,68,35,30.27,30.16,7,1,12,0.00
2013-10-10,77,57,43,52,44,40,96,67,31,30.19,30.05,7,0,7,0.00
2013-10-11,78,61,47,55,48,43,89,66,32,30.09,30.00,7,0,11,0.00
2013-10-12,71,61,53,59,56,52,99,83,63,30.10,30.00,5,0,7,0.00
2013-10-13,70,62,57,61,58,49,96,86,70,30.25,30.09,9,1,13,0.00
2013-10-14,72,59,51,53,49,45,92,71,47,30.30,30.17,9,1,13,0.00
2013-10-15,68,58,49,61,55,46,100,90,76,30.19,29.92,7,1,10,0.04
2013-10-16,64,62,52,62,59,47,99,92,80,29.93,29.82,12,1,16,0.11
2013-10-17,53,48,40,48,44,39,99,88,75,29.93,29.81,9,1,16,0.16
2013-10-18,62,50,41,46,42,39,100,78,45,30.02,29.92,13,2,17,0.01
2013-10-19,49,44,39,47,42,37,99,91,81,29.97,29.78,10,1,17,0.13
2013-10-20,59,46,36,41,38,35,98,75,47,30.03,29.97,14,2,20,0.01
2013-10-21,64,53,40,48,38,34,85,60,35,30.01,29.85,12,2,20,0.00
2013-10-22,53,42,32,48,32,24,94,69,36,30.01,29.86,9,1,17,0.16
2013-10-23,44,38,33,38,34,30,99,88,58,30.01,29.77,13,2,16,0.55
2013-10-24,44,36,30,33,30,23,95,78,45,30.21,29.99,11,1,18,0.00
2013-10-25,47,36,28,32,28,25,94,74,44,30.40,30.22,9,1,17,0.01
2013-10-26,46,39,32,34,27,24,77,63,45,30.27,29.92,16,4,26,0.00
2013-10-27,54,41,31,36,32,29,96,73,42,30.10,30.02,11,1,12,0.00
2013-10-28,62,44,31,42,33,29,99,70,32,30.29,30.09,5,0,7,0.00
2013-10-29,59,48,37,43,38,36,97,72,44,30.37,30.21,6,0,6,0.00
2013-10-30,62,54,48,57,47,36,99,77,61,30.21,30.02,6,0,10,0.00
2013-10-31,64,60,57,60,57,55,100,90,74,30.01,29.31,16,4,23,0.47
2013-11-1,62,54,50,62,47,42,98,77,56,29.69,29.27,16,4,30,0.41
2013-11-2,51,47,42,43,40,36,95,77,60,30.04,29.68,13,2,21,0.04
2013-11-3,55,43,37,41,36,30,97,77,40,30.42,30.04,9,1,12,0.01
2013-11-4,53,42,32,36,31,26,82,65,43,30.48,30.34,11,1,15,0.00
2013-11-5,60,51,46,41,37,35,66,59,47,30.43,30.25,7,0,11,0.00
2013-11-6,67,56,44,59,46,32,99,71,45,30.24,29.90,16,4,20,0.48
2013-11-7,50,41,33,49,32,25,99,73,47,30.19,29.93,14,3,19,0.14
2013-11-8,44,36,29,33,29,26,94,77,51,30.35,30.15,9,1,18,0.01
2013-11-9,58,45,31,34,29,26,89,57,35,30.27,29.97,22,4,28,0.00
2013-11-10,47,40,29,37,30,25,89,67,51,30.34,30.01,15,3,22,0.00
2013-11-11,48,39,27,39,31,25,95,74,52,30.32,30.05,13,2,17,0.05
2013-11-12,32,27,23,31,22,18,96,81,71,30.59,30.20,14,3,21,0.01
2013-11-13,36,28,18,21,18,14,91,67,40,30.62,30.39,14,2,18,0.01
2013-11-14,50,38,29,23,18,14,65,46,26,30.39,30.17,15,4,21,0.00
2013-11-15,51,45,39,39,24,16,77,45,32,30.19,30.10,14,2,17,0.00
2013-11-16,57,51,44,51,46,38,90,83,74,30.17,29.92,11,2,15,0.00
2013-11-17,60,57,51,58,53,38,97,86,54,29.92,29.45,25,7,32,0.68
2013-11-18,51,44,34,39,33,24,83,67,47,30.13,29.68,26,7,26,0.00
2013-11-19,43,34,28,26,24,23,84,67,47,30.40,30.13,11,1,16,0.00
2013-11-20,46,36,27,29,24,21,79,63,46,30.41,30.27,9,2,15,0.00
2013-11-21,54,46,37,43,34,24,85,66,52,30.37,30.20,5,0,10,0.17
2013-11-22,51,46,35,51,44,28,100,93,75,30.33,30.11,12,3,19,0.32
2013-11-23,36,28,19,28,20,6,92,73,51,30.50,30.27,21,4,23,0.01
2013-11-24,24,18,14,11,7,3,84,64,44,30.66,30.50,11,3,17,0.00
2013-11-25,35,25,15,27,13,8,88,62,37,30.56,30.21,14,2,22,0.00
2013-11-26,33,30,28,31,29,27,97,95,88,30.22,29.87,4,0,7,0.05
2013-11-27,29,26,23,27,18,10,94,73,50,30.25,29.85,14,4,21,0.00
2013-11-28,23,23,22,19,18,18,84,83,82,30.29,30.25,4,1,10,0.00
2013-11-29,36,28,25,20,19,18,75,68,50,30.65,30.58,3,0,5,0.15
2013-11-30,40,28,25,26,21,18,79,73,57,30.58,30.33,10,2,13,0.01
2013-12-4,56,56,55,51,50,50,83,82,82,29.77,29.77,2,1,11,0.00
2013-12-5,63,50,32,60,46,30,100,85,68,30.11,29.74,13,3,17,0.47
2013-12-6,32,29,25,30,27,22,94,92,89,30.37,30.08,6,1,14,0.04
2013-12-7,26,21,15,23,14,9,92,75,57,30.64,30.36,11,1,13,0.12
2013-12-8,30,20,15,30,15,10,98,80,76,30.59,30.03,10,2,15,0.00
2013-12-9,33,30,24,33,26,17,99,85,70,30.21,29.98,17,4,18,0.00
2013-12-10,24,21,17,18,13,7,90,73,55,30.35,30.13,17,4,20,0.00
2013-12-11,30,21,13,18,13,8,82,72,58,30.49,30.28,15,4,18,0.01
2013-12-12,18,14,5,8,2,-4,82,62,39,30.55,30.35,14,3,18,0.00
2013-12-13,32,24,15,23,13,5,71,63,54,30.35,30.21,10,3,15,0.00
2013-12-14,37,32,29,37,32,24,100,97,77,30.24,29.70,10,2,15,0.05
2013-12-15,33,24,21,33,19,10,100,83,60,30.11,29.75,16,6,23,0.03
2013-12-16,26,22,19,25,18,12,96,83,67,30.19,30.02,13,1,16,0.00
2013-12-17,32,27,25,31,24,20,97,87,78,30.14,29.97,12,3,19,0.00
2013-12-18,29,25,22,23,18,14,91,75,58,30.25,30.09,12,4,16,0.00
2013-12-19,48,41,29,36,26,15,73,56,47,30.10,29.97,11,3,16,0.26
2013-12-20,55,51,46,53,43,30,99,76,50,29.97,29.82,11,3,19,0.07
2013-12-21,65,58,55,62,57,53,100,96,79,29.82,29.45,17,5,31,1.23
2013-12-22,65,55,42,60,50,39,98,84,65,29.99,29.44,18,6,30,0.60
2013-12-23,42,32,26,39,25,17,96,76,65,30.36,29.97,13,3,17,0.05
2013-12-24,26,16,8,21,9,3,88,75,64,30.61,30.33,12,3,19,0.00
2013-12-25,30,22,8,24,13,4,86,70,43,30.58,30.19,10,2,16,0.00
2013-12-26,36,31,24,25,20,15,81,65,44,30.36,30.16,20,5,22,0.00
2013-12-27,43,36,29,29,25,19,74,65,56,30.41,30.27,13,3,17,0.00
2013-12-28,51,41,35,32,28,25,72,60,49,30.27,30.02,16,4,18,0.00
2013-12-29,42,38,32,40,34,24,99,85,50,30.02,29.74,16,2,18,0.39
2013-12-30,32,26,24,28,19,16,86,75,68,30.24,29.95,14,2,20,0.01
2013-12-31,25,23,19,18,15,11,84,72,60,30.36,30.13,16,4,22,0.00
2014-1-1,38,29,18,28,22,14,89,77,62,30.34,30.06,5,0,10,0.00
2014-1-2,27,21,10,23,17,4,93,85,75,30.18,29.78,16,3,23,0.00